Time;durP1;ratioP1;P1;durP2;ratioP2;P2;SDS_P1;SDS_P2;PMS_P1;PMS_P2;Temp;Humidity;BMP_temperature;BMP_pressure;BME280_temperature;BME280_humidity;BME280_pressure;Samples;Min_cycle;Max_cycle;Signal;HPM_P1;HPM_P2
2022/04/15 00:01:18;;;;;;;17.20;10.23;;;;;;;13.87;100.00;97106.91;4987918;28;20073;-68
2022/04/15 00:03:43;;;;;;;15.10;8.95;;;;;;;13.84;100.00;97107.66;5000259;28;20061;-67
2022/04/15 00:06:10;;;;;;;13.68;8.23;;;;;;;13.92;100.00;97104.59;4996754;28;20566;-66
2022/04/15 00:08:36;;;;;;;13.77;9.02;;;;;;;13.91;100.00;97107.75;4992266;28;20049;-67
2022/04/15 00:11:02;;;;;;;15.48;8.95;;;;;;;13.95;100.00;97112.13;5002703;28;20368;-66
2022/04/15 00:13:29;;;;;;;14.50;8.88;;;;;;;14.05;100.00;97109.84;4981490;28;20400;-67
2022/04/15 00:15:59;;;;;;;16.23;9.68;;;;;;;13.97;100.00;97122.72;4972306;28;20053;-67
2022/04/15 00:18:26;;;;;;;15.88;8.88;;;;;;;13.87;100.00;97121.47;4964485;28;20069;-66
2022/04/15 00:20:52;;;;;;;18.70;9.77;;;;;;;13.82;100.00;97118.28;4992785;28;20563;-67
2022/04/15 00:23:18;;;;;;;21.95;10.43;;;;;;;13.70;100.00;97117.38;4995765;28;20113;-66
2022/04/15 00:25:44;;;;;;;20.13;10.45;;;;;;;13.71;100.00;97123.66;5002925;28;20049;-66
2022/04/15 00:28:10;;;;;;;15.45;9.35;;;;;;;13.76;100.00;97132.38;4989978;28;20038;-66
2022/04/15 00:30:36;;;;;;;12.73;8.65;;;;;;;14.04;100.00;97125.56;4983191;28;20042;-67
2022/04/15 00:33:01;;;;;;;19.38;11.07;;;;;;;14.36;100.00;97135.28;4996722;28;20046;-65
2022/04/15 00:35:27;;;;;;;17.08;9.07;;;;;;;14.60;100.00;97131.19;4972421;28;20043;-67
2022/04/15 00:37:52;;;;;;;15.55;8.63;;;;;;;14.68;100.00;97135.59;4973534;28;20046;-68
2022/04/15 00:40:17;;;;;;;16.38;9.52;;;;;;;14.91;100.00;97124.31;4986917;28;20098;-67
2022/04/15 00:42:43;;;;;;;13.93;10.38;;;;;;;14.49;100.00;97118.06;4995953;28;20038;-67
2022/04/15 00:45:09;;;;;;;19.70;10.55;;;;;;;14.09;100.00;97121.69;4992245;28;20037;-67
2022/04/15 00:48:09;;;;;;;21.15;11.88;;;;;;;13.78;100.00;97107.22;4989476;28;20018;-68
2022/04/15 00:50:35;;;;;;;17.90;11.50;;;;;;;13.69;100.00;97104.75;4952064;28;20078;-66
2022/04/15 00:53:07;;;;;;;24.63;12.40;;;;;;;13.69;100.00;97101.22;4974008;28;20135;-66
2022/04/15 00:55:33;;;;;;;17.30;10.45;;;;;;;13.91;100.00;97103.00;4974372;28;20030;-65
2022/04/15 00:58:00;;;;;;;21.73;12.93;;;;;;;13.81;100.00;97100.16;4974458;28;20110;-68
2022/04/15 01:00:28;;;;;;;22.75;12.85;;;;;;;13.72;100.00;97101.28;4974179;28;20035;-68
2022/04/15 01:02:56;;;;;;;18.58;11.05;;;;;;;13.83;100.00;97098.63;4974145;28;20035;-68
2022/04/15 01:05:22;;;;;;;23.70;11.80;;;;;;;13.76;100.00;97099.34;4974222;28;20065;-67
2022/04/15 01:07:52;;;;;;;19.67;10.85;;;;;;;13.70;100.00;97106.38;4977414;28;20391;-68
2022/04/15 01:10:19;;;;;;;21.30;11.15;;;;;;;13.87;100.00;97110.47;4979199;28;20050;-68
2022/04/15 01:12:54;;;;;;;20.95;11.77;;;;;;;14.09;100.00;97116.16;4977987;28;20598;-67
2022/04/15 01:15:22;;;;;;;18.08;10.95;;;;;;;14.32;100.00;97119.53;4973915;28;20054;-66
2022/04/15 01:17:47;;;;;;;16.92;10.55;;;;;;;14.46;100.00;97126.34;4974002;28;20133;-68
2022/04/15 01:20:13;;;;;;;18.38;11.77;;;;;;;14.54;100.00;97123.22;4972872;28;20491;-67
2022/04/15 01:22:41;;;;;;;17.50;10.48;;;;;;;14.60;100.00;97120.16;4980599;28;20035;-67
2022/04/15 01:25:12;;;;;;;17.45;11.18;;;;;;;14.47;100.00;97125.94;5012672;28;20037;-69
2022/04/15 01:27:45;;;;;;;19.70;11.73;;;;;;;14.17;100.00;97122.53;5004216;28;20088;-67
2022/04/15 01:30:13;;;;;;;19.23;11.75;;;;;;;13.92;100.00;97117.59;5012450;28;20109;-68
2022/04/15 01:32:39;;;;;;;18.77;11.40;;;;;;;13.90;100.00;97123.47;5012495;28;20033;-69
2022/04/15 01:35:06;;;;;;;18.83;11.75;;;;;;;13.93;100.00;97124.66;5002125;28;20029;-68
2022/04/15 01:37:32;;;;;;;23.33;13.20;;;;;;;14.02;100.00;97121.59;5011566;28;20321;-69
2022/04/15 01:39:57;;;;;;;17.23;11.65;;;;;;;14.03;100.00;97128.72;5012917;28;20084;-67
2022/04/15 01:42:23;;;;;;;17.58;10.43;;;;;;;14.06;100.00;97119.66;5000640;28;20045;-67
2022/04/15 01:44:48;;;;;;;21.52;11.75;;;;;;;14.26;100.00;97120.25;5010731;28;20168;-68
2022/04/15 01:47:16;;;;;;;22.80;11.15;;;;;;;14.38;100.00;97114.44;5011638;28;20034;-66
2022/04/15 01:49:42;;;;;;;22.17;10.68;;;;;;;14.45;100.00;97102.69;5012315;28;20026;-67
2022/04/15 01:52:08;;;;;;;23.40;11.27;;;;;;;14.41;100.00;97101.88;5012107;28;20040;-67
2022/04/15 01:54:34;;;;;;;20.95;11.18;;;;;;;14.37;100.00;97103.81;5004673;28;20034;-67
2022/04/15 01:56:59;;;;;;;20.30;11.13;;;;;;;14.24;100.00;97101.38;5011316;28;20041;-68
2022/04/15 01:59:24;;;;;;;16.20;10.68;;;;;;;14.18;100.00;97099.34;5011214;28;20487;-66
2022/04/15 02:01:54;;;;;;;16.38;10.15;;;;;;;14.04;100.00;97099.97;5007150;28;20145;-67
2022/04/15 02:04:27;;;;;;;19.55;10.82;;;;;;;13.83;100.00;97093.13;4984985;28;20050;-67
2022/04/15 02:06:53;;;;;;;19.48;12.07;;;;;;;13.65;100.00;97090.19;4995352;28;20053;-67
2022/04/15 02:09:19;;;;;;;20.05;11.52;;;;;;;13.40;100.00;97089.91;5011233;28;20066;-67
2022/04/15 02:11:45;;;;;;;18.13;11.20;;;;;;;13.54;100.00;97105.75;4995177;28;20031;-67
2022/04/15 02:14:12;;;;;;;17.27;11.23;;;;;;;13.51;100.00;97115.56;4993101;28;20034;-67
2022/04/15 02:16:38;;;;;;;19.52;11.93;;;;;;;13.51;100.00;97118.34;4992205;28;20034;-68
2022/04/15 02:19:04;;;;;;;17.50;11.18;;;;;;;13.55;100.00;97118.38;4992445;28;20488;-68
2022/04/15 02:21:29;;;;;;;24.33;11.32;;;;;;;13.63;100.00;97110.97;4986908;28;20054;-68
2022/04/15 02:23:55;;;;;;;20.73;10.55;;;;;;;13.55;100.00;97121.91;4972754;28;20054;-67
2022/04/15 02:26:20;;;;;;;17.55;10.52;;;;;;;13.56;100.00;97118.00;4971705;28;20039;-68
2022/04/15 02:28:46;;;;;;;16.40;10.90;;;;;;;13.61;100.00;97124.31;4972956;28;20085;-68
2022/04/15 02:31:11;;;;;;;18.75;10.38;;;;;;;13.75;100.00;97124.47;4972775;28;20468;-67
2022/04/15 02:33:37;;;;;;;17.10;10.65;;;;;;;13.76;100.00;97124.09;4975437;28;20062;-68
2022/04/15 02:36:02;;;;;;;17.58;11.13;;;;;;;13.70;100.00;97122.88;4989502;28;20034;-68
2022/04/15 02:38:28;;;;;;;18.90;11.10;;;;;;;13.63;100.00;97133.00;4981416;28;20161;-68
2022/04/15 02:40:54;;;;;;;18.80;10.13;;;;;;;13.56;100.00;97139.22;4972709;28;20034;-66
2022/04/15 02:43:20;;;;;;;17.58;11.57;;;;;;;13.45;100.00;97143.78;4973112;28;20058;-68
2022/04/15 02:45:46;;;;;;;16.67;11.70;;;;;;;13.64;100.00;97146.38;4999642;28;20030;-66
2022/04/15 02:48:13;;;;;;;17.83;10.88;;;;;;;13.89;100.00;97143.13;5011073;28;20069;-65
2022/04/15 02:50:39;;;;;;;18.85;11.73;;;;;;;13.63;100.00;97131.06;5011180;28;20026;-66
2022/04/15 02:53:05;;;;;;;22.23;13.15;;;;;;;12.86;100.00;97113.94;4999606;28;20037;-67
2022/04/15 02:55:30;;;;;;;25.58;14.95;;;;;;;12.41;100.00;97110.16;5001133;28;20379;-66
2022/04/15 02:57:56;;;;;;;26.80;15.30;;;;;;;12.30;100.00;97117.41;4999991;28;20810;-65
2022/04/15 03:00:21;;;;;;;30.25;15.07;;;;;;;12.50;100.00;97126.38;4982672;28;20038;-66
2022/04/15 03:02:47;;;;;;;27.33;15.85;;;;;;;12.68;100.00;97130.19;5009100;28;20044;-67
2022/04/15 03:05:12;;;;;;;23.88;15.32;;;;;;;12.77;100.00;97132.66;5009894;28;20781;-66
2022/04/15 03:07:38;;;;;;;25.92;16.15;;;;;;;12.81;100.00;97128.00;4991120;28;20049;-67
2022/04/15 03:10:05;;;;;;;23.80;15.93;;;;;;;12.82;100.00;97121.34;4990558;28;20042;-66
2022/04/15 03:12:35;;;;;;;29.85;16.10;;;;;;;12.84;100.00;97126.47;4990235;28;20030;-66
2022/04/15 03:15:01;;;;;;;26.95;16.95;;;;;;;12.85;100.00;97122.56;4990266;28;20040;-67
2022/04/15 03:17:26;;;;;;;26.33;16.88;;;;;;;12.89;100.00;97124.22;4992880;28;20081;-66
2022/04/15 03:19:52;;;;;;;28.55;17.58;;;;;;;12.85;100.00;97125.31;4974170;28;20134;-67
2022/04/15 03:22:19;;;;;;;25.58;16.70;;;;;;;12.91;100.00;97110.88;4971888;28;20440;-67
2022/04/15 03:24:44;;;;;;;41.22;23.85;;;;;;;12.95;100.00;97119.97;4971148;28;20035;-66
2022/04/15 03:27:10;;;;;;;30.88;17.60;;;;;;;12.96;100.00;97126.25;4970390;28;20117;-67
2022/04/15 03:29:36;;;;;;;28.90;15.57;;;;;;;13.05;100.00;97125.97;4970839;28;20084;-67
2022/04/15 03:32:01;;;;;;;32.90;18.90;;;;;;;13.11;100.00;97128.03;4971034;28;20038;-67
2022/04/15 03:34:27;;;;;;;25.55;17.30;;;;;;;13.13;100.00;97133.94;4970868;28;20045;-67
2022/04/15 03:36:52;;;;;;;53.47;25.83;;;;;;;13.24;100.00;97130.56;4970427;28;20420;-66
2022/04/15 03:39:18;;;;;;;23.80;15.30;;;;;;;13.27;100.00;97132.53;4990807;28;20369;-67
2022/04/15 03:41:43;;;;;;;27.90;16.15;;;;;;;13.25;100.00;97140.38;4991111;28;20034;-67
2022/04/15 03:44:08;;;;;;;30.30;16.88;;;;;;;13.28;100.00;97142.38;4990242;28;20054;-67
2022/04/15 03:46:34;;;;;;;30.00;16.30;;;;;;;13.25;100.00;97137.63;5000610;28;20137;-67
2022/04/15 03:49:00;;;;;;;25.73;15.27;;;;;;;13.29;100.00;97141.19;5010531;28;20113;-66
2022/04/15 03:51:25;;;;;;;26.98;16.15;;;;;;;13.39;100.00;97148.84;5010565;28;20029;-67
2022/04/15 03:53:50;;;;;;;22.98;15.35;;;;;;;13.42;100.00;97147.31;5010406;28;20033;-66
2022/04/15 03:56:16;;;;;;;21.98;15.02;;;;;;;13.41;100.00;97145.72;5000796;28;20033;-66
2022/04/15 03:58:41;;;;;;;25.08;16.27;;;;;;;13.17;100.00;97139.50;5010394;28;20034;-66
2022/04/15 04:01:06;;;;;;;23.50;14.65;;;;;;;13.05;100.00;97145.22;5005826;28;20065;-68
2022/04/15 04:03:32;;;;;;;24.25;15.10;;;;;;;13.05;100.00;97153.47;5010336;28;20033;-67
2022/04/15 04:05:57;;;;;;;21.77;15.15;;;;;;;13.19;100.00;97150.91;5008515;28;20038;-68
2022/04/15 04:08:22;;;;;;;30.45;16.52;;;;;;;13.28;100.00;97147.88;5000386;28;20033;-67
2022/04/15 04:10:48;;;;;;;25.23;15.70;;;;;;;13.31;100.00;97152.69;5005395;28;20542;-68
2022/04/15 04:13:13;;;;;;;28.75;16.35;;;;;;;13.32;100.00;97157.78;5011494;28;20029;-67
2022/04/15 04:15:39;;;;;;;24.30;16.50;;;;;;;13.25;100.00;97149.41;5010823;28;20041;-66
2022/04/15 04:18:04;;;;;;;24.27;16.42;;;;;;;13.22;100.00;97149.38;5011933;28;20367;-67
2022/04/15 04:20:30;;;;;;;26.48;16.83;;;;;;;13.22;100.00;97161.19;5008951;28;20034;-67
2022/04/15 04:22:56;;;;;;;24.33;15.00;;;;;;;13.16;100.00;97166.22;4988082;28;20080;-67
2022/04/15 04:25:21;;;;;;;25.05;16.00;;;;;;;13.17;100.00;97165.03;4992494;28;20058;-67
2022/04/15 04:27:47;;;;;;;23.48;16.05;;;;;;;13.31;100.00;97166.44;4992829;28;20022;-68
2022/04/15 04:30:13;;;;;;;22.65;16.50;;;;;;;13.40;100.00;97166.94;4993211;28;20030;-66
2022/04/15 04:32:39;;;;;;;26.15;15.15;;;;;;;13.44;100.00;97176.03;4993044;28;20526;-67
2022/04/15 04:35:05;;;;;;;20.98;15.77;;;;;;;13.49;100.00;97178.47;4993074;28;20105;-68
2022/04/15 04:37:31;;;;;;;26.55;15.93;;;;;;;13.53;100.00;97187.53;4990875;28;20038;-67
2022/04/15 04:39:56;;;;;;;22.85;15.25;;;;;;;13.62;100.00;97181.75;4986521;28;20031;-68
2022/04/15 04:42:22;;;;;;;21.52;14.75;;;;;;;13.58;100.00;97180.94;4975945;28;20113;-67
2022/04/15 04:44:48;;;;;;;20.88;14.40;;;;;;;13.48;100.00;97184.34;4975529;28;20038;-66
2022/04/15 04:47:14;;;;;;;24.15;14.75;;;;;;;13.43;100.00;97179.94;4974117;28;20040;-65
2022/04/15 04:49:39;;;;;;;21.23;14.40;;;;;;;13.49;100.00;97183.19;4976211;28;20027;-66
2022/04/15 04:52:05;;;;;;;25.08;15.02;;;;;;;13.41;100.00;97181.50;4984160;28;20035;-66
2022/04/15 04:54:31;;;;;;;26.90;15.43;;;;;;;13.31;100.00;97189.22;4986064;28;20117;-67
2022/04/15 04:56:58;;;;;;;24.33;15.57;;;;;;;12.97;100.00;97186.38;4990971;28;20034;-68
2022/04/15 04:59:25;;;;;;;26.77;17.33;;;;;;;12.66;100.00;97186.66;4973281;28;20522;-67
2022/04/15 05:01:53;;;;;;;25.98;15.90;;;;;;;12.69;100.00;97189.47;4972163;28;20070;-66
2022/04/15 05:04:19;;;;;;;23.48;15.57;;;;;;;12.82;100.00;97193.63;4973277;28;20035;-66
2022/04/15 05:06:44;;;;;;;28.63;16.65;;;;;;;12.99;100.00;97191.50;4972015;28;20456;-66
2022/04/15 05:09:10;;;;;;;22.45;14.30;;;;;;;13.18;100.00;97196.88;4973197;28;20035;-67
2022/04/15 05:11:35;;;;;;;22.27;13.27;;;;;;;13.31;100.00;97197.47;4988195;28;20436;-67
2022/04/15 05:14:01;;;;;;;18.83;12.52;;;;;;;13.39;100.00;97198.38;4973213;28;20089;-67
2022/04/15 05:16:26;;;;;;;14.40;9.63;;;;;;;13.35;100.00;97203.81;4985477;28;20034;-67
2022/04/15 05:18:51;;;;;;;16.20;9.40;;;;;;;13.33;100.00;97202.63;5002506;28;20064;-67
2022/04/15 05:21:17;;;;;;;15.63;8.65;;;;;;;13.25;100.00;97204.44;5002062;28;20026;-66
2022/04/15 05:23:43;;;;;;;17.95;9.90;;;;;;;12.99;100.00;97197.00;4997159;28;20456;-65
2022/04/15 05:26:08;;;;;;;16.75;9.85;;;;;;;12.89;100.00;97206.69;4991507;28;20444;-67
2022/04/15 05:28:36;;;;;;;20.55;9.73;;;;;;;12.88;100.00;97209.81;4991979;28;20026;-66
2022/04/15 05:31:02;;;;;;;18.83;9.63;;;;;;;13.03;100.00;97206.09;4991879;28;20034;-67
2022/04/15 05:33:28;;;;;;;18.25;10.65;;;;;;;13.16;100.00;97212.16;4991920;28;20026;-66
2022/04/15 05:35:53;;;;;;;15.82;9.98;;;;;;;13.27;100.00;97217.81;4992048;28;20053;-66
2022/04/15 05:38:19;;;;;;;20.52;8.55;;;;;;;13.42;100.00;97210.59;4993132;28;20110;-67
2022/04/15 05:40:44;;;;;;;15.75;7.82;;;;;;;13.15;100.00;97210.59;4992520;28;20491;-67
2022/04/15 05:43:10;;;;;;;15.27;9.30;;;;;;;13.09;100.00;97210.13;4992571;28;20030;-67
2022/04/15 05:45:35;;;;;;;12.75;7.95;;;;;;;13.17;100.00;97220.03;4991742;28;20038;-65
2022/04/15 05:48:00;;;;;;;21.38;11.23;;;;;;;13.02;100.00;97210.00;4997568;28;20463;-66
2022/04/15 05:50:26;;;;;;;15.98;7.75;;;;;;;12.91;100.00;97207.09;5001072;28;20058;-65
2022/04/15 05:52:52;;;;;;;11.93;7.25;;;;;;;13.13;100.00;97221.16;4991248;28;20047;-66
2022/04/15 05:55:17;;;;;;;12.93;6.93;;;;;;;13.19;100.00;97217.72;4981967;28;20400;-64
2022/04/15 05:57:42;;;;;;;9.75;6.45;;;;;;;13.38;100.00;97222.34;5004866;23;20168;-65
2022/04/15 06:00:09;;;;;;;12.65;6.82;;;;;;;13.48;100.00;97220.09;4983668;28;20049;-66
2022/04/15 06:02:34;;;;;;;11.40;6.75;;;;;;;13.72;100.00;97221.56;5000050;28;20050;-66
2022/04/15 06:04:59;;;;;;;13.30;6.82;;;;;;;13.68;100.00;97226.25;5001014;28;20118;-65
2022/04/15 06:07:25;;;;;;;12.27;7.10;;;;;;;13.64;100.00;97234.47;4997843;28;20042;-67
2022/04/15 06:09:50;;;;;;;13.27;7.10;;;;;;;13.51;100.00;97236.66;5001256;28;20046;-67
2022/04/15 06:12:16;;;;;;;15.57;6.93;;;;;;;13.56;100.00;97243.81;4994118;28;20556;-67
2022/04/15 06:14:42;;;;;;;16.73;10.52;;;;;;;13.88;100.00;97241.47;4999277;28;20518;-67
2022/04/15 06:17:08;;;;;;;18.15;10.52;;;;;;;14.25;100.00;97242.66;4993666;28;20038;-66
2022/04/15 06:19:33;;;;;;;16.10;10.15;;;;;;;14.34;100.00;97241.16;4999583;28;20517;-66
2022/04/15 06:21:59;;;;;;;15.50;8.75;;;;;;;14.44;100.00;97236.13;4998870;28;20042;-67
2022/04/15 06:24:24;;;;;;;13.25;9.00;;;;;;;14.59;100.00;97248.13;4991977;28;20196;-66
2022/04/15 06:26:50;;;;;;;15.63;9.23;;;;;;;14.61;100.00;97243.81;4997887;28;20176;-67
2022/04/15 06:29:16;;;;;;;16.83;8.30;;;;;;;14.62;100.00;97248.16;4993054;28;20074;-66
2022/04/15 06:31:41;;;;;;;16.70;9.90;;;;;;;14.65;98.65;97249.38;4990638;28;20046;-68
2022/04/15 06:34:07;;;;;;;14.73;9.77;;;;;;;14.60;100.00;97244.19;4994309;28;20465;-68
2022/04/15 06:36:32;;;;;;;17.08;10.73;;;;;;;14.01;100.00;97252.19;4998497;28;20042;-65
2022/04/15 06:38:58;;;;;;;19.08;11.57;;;;;;;14.52;100.00;97254.34;4998570;28;20180;-67
2022/04/15 06:41:23;;;;;;;20.23;11.23;;;;;;;14.81;100.00;97249.13;4991105;28;20207;-67
2022/04/15 06:43:48;;;;;;;21.60;11.00;;;;;;;15.34;99.65;97245.97;4998562;28;20053;-67
2022/04/15 06:46:14;;;;;;;14.93;9.20;;;;;;;15.91;95.54;97250.22;4990599;28;20045;-67
2022/04/15 06:48:39;;;;;;;13.20;7.65;;;;;;;16.19;90.72;97246.78;4996761;28;20058;-66
2022/04/15 06:51:04;;;;;;;13.85;8.38;;;;;;;15.49;89.47;97242.09;4994607;28;20712;-67
2022/04/15 06:53:30;;;;;;;11.35;9.25;;;;;;;14.48;93.14;97245.25;4990423;28;20042;-70
2022/04/15 06:55:56;;;;;;;12.38;6.95;;;;;;;14.12;97.18;97247.63;4978699;28;20451;-67
2022/04/15 06:58:21;;;;;;;13.77;7.47;;;;;;;14.68;94.44;97251.38;4975421;28;20602;-67
2022/04/15 07:00:48;;;;;;;13.52;6.47;;;;;;;14.57;93.20;97245.72;5017805;28;20041;-66
2022/04/15 07:03:17;;;;;;;9.77;5.72;;;;;;;14.91;90.18;97248.41;4979679;28;20043;-66
2022/04/15 07:05:43;;;;;;;11.63;5.30;;;;;;;14.53;91.30;97247.63;4978276;28;20046;-66
2022/04/15 07:08:10;;;;;;;10.85;6.03;;;;;;;14.29;91.61;97252.53;4973494;28;20026;-66
2022/04/15 07:10:36;;;;;;;10.70;5.80;;;;;;;14.53;88.01;97261.41;4990474;28;20041;-66
2022/04/15 07:13:02;;;;;;;9.40;4.53;;;;;;;14.59;86.32;97253.66;4993109;28;20042;-68
2022/04/15 07:15:29;;;;;;;7.65;4.30;;;;;;;15.09;84.56;97256.84;4986051;28;20100;-65
2022/04/15 07:17:55;;;;;;;7.82;3.92;;;;;;;15.42;82.79;97263.34;4979446;28;20074;-65
2022/04/15 07:20:21;;;;;;;9.13;4.22;;;;;;;16.07;77.38;97253.44;4975362;28;20069;-65
2022/04/15 07:22:47;;;;;;;6.78;4.45;;;;;;;15.14;82.97;97261.19;4984453;28;20487;-66
2022/04/15 07:25:12;;;;;;;10.75;5.00;;;;;;;14.76;84.97;97261.28;4979521;28;20053;-66
2022/04/15 07:27:37;;;;;;;10.57;5.90;;;;;;;15.09;84.16;97260.38;4983074;28;20442;-68
2022/04/15 07:30:04;;;;;;;7.10;4.60;;;;;;;15.70;82.04;97262.72;4979424;28;20050;-67
2022/04/15 07:32:29;;;;;;;7.47;4.80;;;;;;;15.72;82.52;97267.84;4981650;28;20035;-68
2022/04/15 07:34:55;;;;;;;10.77;5.03;;;;;;;16.03;79.82;97267.25;4980547;28;20180;-66
2022/04/15 07:37:22;;;;;;;8.80;4.25;;;;;;;16.50;75.75;97259.09;4966767;28;20069;-66
2022/04/15 07:39:47;;;;;;;7.10;4.28;;;;;;;15.68;81.79;97263.13;4980428;28;20602;-66
2022/04/15 07:42:13;;;;;;;8.43;5.00;;;;;;;15.06;85.58;97258.38;4974216;28;20137;-67
2022/04/15 07:44:44;;;;;;;9.23;5.13;;;;;;;15.60;83.09;97268.97;4980637;28;20046;-67
2022/04/15 07:47:09;;;;;;;14.02;5.20;;;;;;;16.00;80.62;97268.00;4975580;28;20038;-66
2022/04/15 07:49:35;;;;;;;11.25;6.20;;;;;;;15.08;84.75;97264.28;4979869;28;20050;-66
2022/04/15 07:52:04;;;;;;;8.60;4.95;;;;;;;16.04;82.81;97274.38;4980812;28;20041;-66
2022/04/15 07:54:31;;;;;;;11.90;8.35;;;;;;;15.53;83.77;97266.19;4978382;28;20046;-66
2022/04/15 07:56:56;;;;;;;13.48;6.07;;;;;;;15.16;86.32;97265.16;4981375;28;20074;-66
2022/04/15 07:59:22;;;;;;;14.38;5.75;;;;;;;14.56;89.37;97276.41;4979477;28;20066;-66
2022/04/15 08:01:47;;;;;;;15.57;7.95;;;;;;;14.56;89.92;97270.91;4983364;28;20450;-66
2022/04/15 08:04:13;;;;;;;11.35;5.50;;;;;;;14.80;87.76;97262.13;4978941;28;20085;-66
2022/04/15 08:06:39;;;;;;;12.48;5.90;;;;;;;15.13;86.36;97273.41;4983366;28;20057;-66
2022/04/15 08:09:04;;;;;;;7.32;5.10;;;;;;;15.59;85.03;97273.72;4981458;28;20402;-67
2022/04/15 08:11:30;;;;;;;7.45;4.25;;;;;;;15.80;82.26;97264.75;5003624;28;20074;-65
2022/04/15 08:13:56;;;;;;;9.85;4.85;;;;;;;15.88;81.92;97267.56;4997075;28;20188;-65
2022/04/15 08:16:23;;;;;;;15.10;8.77;;;;;;;15.30;84.67;97267.22;4992211;28;20112;-66
2022/04/15 08:18:49;;;;;;;20.50;11.77;;;;;;;15.45;85.59;97268.13;4985842;28;20073;-65
2022/04/15 08:21:15;;;;;;;11.23;7.35;;;;;;;15.32;83.77;97278.66;4993503;28;20046;-66
2022/04/15 08:23:41;;;;;;;11.43;5.70;;;;;;;15.20;85.07;97274.25;5005261;28;20516;-65
2022/04/15 08:26:06;;;;;;;10.52;5.72;;;;;;;15.48;85.87;97273.66;4999159;28;20128;-65
2022/04/15 08:28:32;;;;;;;12.18;5.18;;;;;;;15.46;83.67;97278.75;5003223;28;20046;-65
2022/04/15 08:30:57;;;;;;;11.43;5.35;;;;;;;15.25;85.10;97275.84;5004152;28;20188;-65
2022/04/15 08:33:23;;;;;;;12.32;6.05;;;;;;;15.46;84.56;97284.28;4998597;28;20786;-65
2022/04/15 08:35:49;;;;;;;9.90;5.47;;;;;;;15.58;83.35;97282.38;5000566;28;20044;-65
2022/04/15 08:38:14;;;;;;;9.52;4.82;;;;;;;14.97;85.22;97285.50;4996020;28;20042;-64
2022/04/15 08:40:46;;;;;;;10.43;5.38;;;;;;;15.75;83.04;97284.47;5003150;28;20054;-66
2022/04/15 08:43:11;;;;;;;8.50;5.07;;;;;;;16.18;80.54;97281.88;4995576;28;20112;-65
2022/04/15 08:45:40;;;;;;;9.60;4.97;;;;;;;16.10;81.67;97277.53;4991822;28;20042;-68
2022/04/15 08:48:06;;;;;;;11.00;6.13;;;;;;;16.97;78.79;97275.75;4979978;28;20050;-65
2022/04/15 08:50:32;;;;;;;9.50;4.60;;;;;;;17.52;75.20;97280.06;4983101;28;20182;-66
2022/04/15 08:52:59;;;;;;;9.57;5.35;;;;;;;16.72;74.94;97279.25;4989237;28;20048;-66
2022/04/15 08:55:49;;;;;;;8.30;4.63;;;;;;;16.69;76.41;97282.03;4977754;28;20141;-66
2022/04/15 08:58:15;;;;;;;9.80;4.80;;;;;;;16.62;75.84;97280.84;4968836;28;20546;-68
2022/04/15 09:00:43;;;;;;;8.60;5.38;;;;;;;16.87;74.80;97285.66;4972830;28;20046;-66
2022/04/15 09:03:09;;;;;;;8.15;5.47;;;;;;;16.06;78.58;97287.75;4997097;28;20096;-67
2022/04/15 09:05:34;;;;;;;11.38;6.07;;;;;;;15.62;80.79;97289.50;5002437;28;20907;-67
2022/04/15 09:08:05;;;;;;;13.05;6.85;;;;;;;15.91;81.30;97283.38;5006877;28;20039;-65
2022/04/15 09:10:33;;;;;;;12.25;6.65;;;;;;;16.00;81.10;97289.31;5004068;28;20066;-67
2022/04/15 09:12:58;;;;;;;9.57;6.25;;;;;;;16.08;82.03;97293.72;5005982;28;20044;-66
2022/04/15 09:15:24;;;;;;;8.48;6.43;;;;;;;16.28;79.57;97294.19;4981221;28;20034;-66
2022/04/15 09:17:50;;;;;;;10.02;6.57;;;;;;;16.78;76.73;97287.94;4983026;28;20137;-65
2022/04/15 09:20:16;;;;;;;14.05;6.03;;;;;;;17.31;77.24;97292.75;4978257;28;20074;-67
2022/04/15 09:22:43;;;;;;;15.60;6.90;;;;;;;17.50;75.04;97293.50;4983047;28;20046;-66
2022/04/15 09:25:10;;;;;;;11.18;7.72;;;;;;;17.40;74.42;97295.13;4977804;28;20046;-66
2022/04/15 09:27:36;;;;;;;9.40;6.45;;;;;;;17.06;75.93;97295.53;4985367;28;20049;-66
2022/04/15 09:30:04;;;;;;;14.20;7.75;;;;;;;17.49;73.80;97289.97;4996401;28;20439;-68
2022/04/15 09:32:30;;;;;;;10.70;6.15;;;;;;;18.18;71.77;97289.78;4981866;28;20116;-66
2022/04/15 09:34:56;;;;;;;11.32;7.63;;;;;;;17.99;71.47;97297.41;4984931;28;20041;-66
2022/04/15 09:37:24;;;;;;;13.73;8.65;;;;;;;16.89;77.70;97302.63;4988124;28;20034;-65
2022/04/15 09:40:20;;;;;;;14.02;9.07;;;;;;;16.99;79.67;97293.53;4982415;28;20542;-66
2022/04/15 09:42:51;;;;;;;14.98;10.27;;;;;;;17.42;77.62;97292.75;4985389;28;20081;-66
2022/04/15 09:45:19;;;;;;;15.35;10.05;;;;;;;17.64;74.14;97293.47;4989611;28;20166;-66
2022/04/15 09:48:08;;;;;;;16.35;10.30;;;;;;;17.43;74.94;97299.88;4998256;28;20050;-65
2022/04/15 09:50:38;;;;;;;14.80;9.68;;;;;;;17.03;77.72;97287.22;4998669;28;20045;-64
2022/04/15 09:53:16;;;;;;;13.82;9.27;;;;;;;16.57;80.00;97285.97;4999100;28;20045;-68
2022/04/15 09:55:43;;;;;;;14.95;9.25;;;;;;;16.62;80.37;97289.13;4996511;28;20042;-67
2022/04/15 09:58:18;;;;;;;14.68;8.98;;;;;;;17.11;76.75;97291.59;4986129;28;20435;-66
2022/04/15 10:00:48;;;;;;;13.88;7.53;;;;;;;17.41;77.09;97285.59;4996706;28;20418;-67
2022/04/15 10:03:17;;;;;;;;;;;;;;;18.56;70.92;97301.09;4991078;28;20100;-65
2022/04/15 10:05:44;;;;;;;14.75;7.07;;;;;;;19.13;66.56;97294.41;5000145;28;19914;-64
2022/04/15 10:08:10;;;;;;;13.48;6.43;;;;;;;19.74;63.36;97294.66;4996741;28;20131;-66
2022/04/15 10:10:36;;;;;;;10.18;7.18;;;;;;;18.87;65.50;97288.22;5000531;28;20490;-64
2022/04/15 10:13:06;;;;;;;13.13;7.50;;;;;;;19.43;65.65;97288.19;4995873;28;20030;-65
2022/04/15 10:15:33;;;;;;;14.00;8.60;;;;;;;19.32;67.02;97293.03;4983187;28;20043;-65
2022/04/15 10:18:02;;;;;;;13.10;9.70;;;;;;;17.98;71.68;97290.25;4981406;28;20038;-66
2022/04/15 10:20:29;;;;;;;11.32;7.88;;;;;;;18.13;71.74;97293.75;4978067;28;20046;-65
2022/04/15 10:23:01;;;;;;;13.73;9.00;;;;;;;17.09;74.24;97291.97;4990793;28;20125;-65
2022/04/15 10:25:28;;;;;;;11.68;7.40;;;;;;;17.91;72.70;97290.28;4988921;28;20060;-65
2022/04/15 10:28:26;;;;;;;15.13;8.77;;;;;;;17.87;73.26;97292.28;5000327;28;20398;-66
2022/04/15 10:31:04;;;;;;;14.85;9.15;;;;;;;18.30;73.04;97283.81;4999582;28;20510;-67
2022/04/15 10:33:31;;;;;;;12.75;8.60;;;;;;;17.91;73.47;97281.97;5000038;28;20455;-66
2022/04/15 10:36:17;;;;;;;16.42;9.95;;;;;;;17.94;69.77;97284.72;4999241;28;20501;-66
2022/04/15 10:39:07;;;;;;;15.13;8.80;;;;;;;17.62;70.86;97284.00;4998075;28;20042;-66
2022/04/15 10:41:42;;;;;;;13.98;6.85;;;;;;;17.30;70.05;97285.63;4980303;28;20130;-66
2022/04/15 10:44:12;;;;;;;11.23;7.45;;;;;;;17.34;71.77;97283.66;4975958;28;20042;-66
2022/04/15 10:46:38;;;;;;;10.75;6.40;;;;;;;17.18;70.17;97286.03;4979651;28;20069;-66
2022/04/15 10:49:22;;;;;;;12.60;7.38;;;;;;;17.36;69.47;97274.97;4977910;28;20073;-69
2022/04/15 10:51:51;;;;;;;9.68;7.22;;;;;;;17.41;70.48;97276.53;4993631;28;20038;-67
2022/04/15 10:54:35;;;;;;;11.25;7.03;;;;;;;17.53;72.15;97276.88;4983382;28;20105;-67
2022/04/15 10:57:09;;;;;;;14.68;7.97;;;;;;;17.88;69.51;97274.44;4981440;28;20042;-67
2022/04/15 11:02:21;;;;;;;8.70;5.75;;;;;;;18.12;65.35;97281.09;4976204;28;20049;-65
2022/04/15 11:04:49;;;;;;;10.00;6.28;;;;;;;18.18;66.51;97287.03;4980950;28;20042;-66
2022/04/15 11:07:47;;;;;;;11.52;6.10;;;;;;;19.18;62.11;97283.63;4984894;28;20039;-67
2022/04/15 11:10:41;;;;;;;12.88;4.97;;;;;;;19.34;61.36;97283.09;4974977;28;20034;-65
2022/04/15 11:13:33;;;;;;;8.85;5.57;;;;;;;18.28;63.00;97278.66;4978514;28;20052;-64
2022/04/15 11:16:06;;;;;;;9.68;6.05;;;;;;;18.38;60.43;97276.22;4954991;28;20042;-65
2022/04/15 11:18:50;;;;;;;7.57;4.90;;;;;;;18.81;60.32;97271.22;4994947;28;20046;-65
2022/04/15 11:21:21;;;;;;;14.70;5.93;;;;;;;18.75;58.20;97275.59;4980536;28;20065;-66